createdAt,value
2022-10-29T00:01:10.475Z,12.10
2022-10-29T00:03:38.770Z,12.10
2022-10-29T00:06:11.091Z,12.10
2022-10-29T00:08:40.764Z,12.10
2022-10-29T00:11:11.588Z,12.10
2022-10-29T00:13:40.179Z,12.10
2022-10-29T00:16:12.351Z,12.00
2022-10-29T00:18:40.830Z,12.00
2022-10-29T00:21:13.570Z,12.00
2022-10-29T00:23:41.886Z,12.00
2022-10-29T00:26:10.792Z,12.00
2022-10-29T00:28:39.185Z,12.00
2022-10-29T00:31:11.577Z,12.00
2022-10-29T00:33:39.978Z,11.90
2022-10-29T00:36:11.520Z,11.90
2022-10-29T00:38:39.784Z,11.80
2022-10-29T00:41:12.179Z,11.80
2022-10-29T00:43:45.323Z,11.70
2022-10-29T00:46:25.667Z,11.70
2022-10-29T00:48:57.246Z,11.70
2022-10-29T00:51:26.841Z,11.70
2022-10-29T00:54:00.445Z,11.60
2022-10-29T00:56:30.781Z,11.60
2022-10-29T00:58:59.197Z,11.60
2022-10-29T01:01:28.825Z,11.60
2022-10-29T01:04:00.057Z,11.60
2022-10-29T01:06:30.110Z,11.60
2022-10-29T01:08:58.163Z,11.60
2022-10-29T01:11:40.206Z,11.60
2022-10-29T01:14:20.317Z,11.50
2022-10-29T01:16:56.986Z,11.50
2022-10-29T01:19:55.034Z,11.40
2022-10-29T01:22:31.609Z,11.40
2022-10-29T01:25:28.028Z,11.40
2022-10-29T01:28:07.461Z,11.40
2022-10-29T01:31:00.427Z,11.30
2022-10-29T01:33:37.616Z,11.30
2022-10-29T01:36:16.595Z,11.30
2022-10-29T01:38:54.782Z,11.30
2022-10-29T01:41:31.830Z,11.30
2022-10-29T01:44:09.242Z,11.30
2022-10-29T01:46:45.737Z,11.30
2022-10-29T01:49:22.195Z,11.30
2022-10-29T01:51:52.062Z,11.30
2022-10-29T01:54:20.432Z,11.30
2022-10-29T01:56:56.548Z,11.30
2022-10-29T01:59:36.089Z,11.30
2022-10-29T02:02:19.974Z,11.20
2022-10-29T02:05:07.170Z,11.20
2022-10-29T02:07:45.871Z,11.10
2022-10-29T02:10:24.129Z,11.10
2022-10-29T02:12:54.850Z,11.10
2022-10-29T02:15:30.256Z,11.10
2022-10-29T02:18:02.329Z,11.10
2022-10-29T02:20:31.179Z,11.00
2022-10-29T02:22:59.445Z,11.00
2022-10-29T02:25:27.870Z,11.00
2022-10-29T02:28:00.522Z,11.00
2022-10-29T02:30:29.037Z,11.10
2022-10-29T02:32:57.497Z,11.10
2022-10-29T02:35:27.320Z,11.10
2022-10-29T02:37:55.634Z,11.10
2022-10-29T02:40:23.798Z,11.10
2022-10-29T02:42:51.858Z,11.10
2022-10-29T02:45:19.885Z,11.00
2022-10-29T02:47:47.937Z,11.10
2022-10-29T02:50:16.127Z,11.00
2022-10-29T02:52:45.564Z,11.00
2022-10-29T02:55:13.678Z,11.00
2022-10-29T02:57:44.983Z,11.00
2022-10-29T03:00:15.137Z,11.00
2022-10-29T03:02:43.309Z,11.00
2022-10-29T03:05:11.841Z,11.10
2022-10-29T03:07:40.326Z,11.10
2022-10-29T03:10:10.905Z,11.10
2022-10-29T03:12:38.966Z,11.10
2022-10-29T03:15:08.428Z,11.10
2022-10-29T03:17:36.490Z,11.10
2022-10-29T03:20:06.108Z,11.20
2022-10-29T03:22:34.157Z,11.20
2022-10-29T03:25:02.243Z,11.20
2022-10-29T03:27:31.636Z,11.20
2022-10-29T03:29:59.742Z,11.20
2022-10-29T03:32:27.793Z,11.20
2022-10-29T03:34:58.975Z,11.30
2022-10-29T03:37:28.085Z,11.30
2022-10-29T03:39:56.168Z,11.30
2022-10-29T03:42:24.325Z,11.30
2022-10-29T03:44:53.775Z,11.40
2022-10-29T03:47:21.985Z,11.40
2022-10-29T03:49:50.027Z,11.40
2022-10-29T03:52:18.233Z,11.40
2022-10-29T03:54:46.326Z,11.40
2022-10-29T03:57:14.443Z,11.40
2022-10-29T03:59:42.938Z,11.40
2022-10-29T04:02:13.236Z,11.40
2022-10-29T04:04:41.430Z,11.50
2022-10-29T04:07:09.457Z,11.50
2022-10-29T04:09:37.521Z,11.50
2022-10-29T04:12:06.533Z,11.60
2022-10-29T04:14:34.786Z,11.60
2022-10-29T04:17:03.080Z,11.60
2022-10-29T04:19:32.490Z,11.60
2022-10-29T04:26:42.057Z,11.70
2022-10-29T04:30:25.659Z,11.80
2022-10-29T04:32:58.814Z,11.80
2022-10-29T04:35:30.289Z,11.80
2022-10-29T04:37:58.860Z,11.80
2022-10-29T04:40:26.978Z,11.80
2022-10-29T04:42:55.584Z,11.90
2022-10-29T04:45:23.880Z,11.90
2022-10-29T04:48:00.810Z,11.90
2022-10-29T04:50:31.117Z,11.90
2022-10-29T04:52:59.997Z,11.90
2022-10-29T04:55:29.036Z,11.90
2022-10-29T04:57:57.715Z,12.00
2022-10-29T05:00:26.033Z,12.00
2022-10-29T05:02:55.429Z,12.00
2022-10-29T05:05:23.926Z,12.00
2022-10-29T05:07:58.779Z,12.00
2022-10-29T05:10:28.640Z,12.00
2022-10-29T05:13:00.812Z,11.90
2022-10-29T05:15:29.937Z,11.90
2022-10-29T05:17:58.811Z,11.80
2022-10-29T05:20:27.811Z,11.80
2022-10-29T05:23:01.841Z,11.70
2022-10-29T05:25:30.966Z,11.70
2022-10-29T05:28:03.578Z,11.60
2022-10-29T05:30:32.232Z,11.60
2022-10-29T05:33:00.339Z,11.60
2022-10-29T05:35:29.239Z,11.50
2022-10-29T05:37:57.994Z,11.50
2022-10-29T05:40:28.007Z,11.40
2022-10-29T05:42:56.473Z,11.40
2022-10-29T05:45:25.295Z,11.40
2022-10-29T05:47:58.281Z,11.30
2022-10-29T05:50:26.917Z,11.30
2022-10-29T05:52:59.153Z,11.20
2022-10-29T05:55:30.372Z,11.20
2022-10-29T05:57:59.350Z,11.20
2022-10-29T06:00:29.534Z,11.20
2022-10-29T06:02:58.583Z,11.10
2022-10-29T06:05:27.510Z,11.10
2022-10-29T06:07:57.101Z,11.10
2022-10-29T06:10:29.206Z,11.10
2022-10-29T06:12:57.614Z,11.00
2022-10-29T06:15:25.753Z,11.00
2022-10-29T06:17:54.247Z,11.00
2022-10-29T06:20:23.727Z,11.00
2022-10-29T06:22:58.720Z,11.00
2022-10-29T06:25:29.426Z,11.00
2022-10-29T06:28:02.220Z,11.00
2022-10-29T06:30:31.355Z,11.00
2022-10-29T06:32:59.810Z,11.00
2022-10-29T06:35:28.462Z,11.00
2022-10-29T06:37:57.229Z,11.10
2022-10-29T06:40:25.663Z,11.10
2022-10-29T06:43:01.322Z,11.10
2022-10-29T06:45:30.095Z,11.20
2022-10-29T06:47:58.703Z,11.30
2022-10-29T06:50:27.698Z,11.40
2022-10-29T06:52:58.431Z,11.50
2022-10-29T06:55:27.377Z,11.70
2022-10-29T06:58:02.562Z,12.00
2022-10-29T07:00:31.773Z,12.10
2022-10-29T07:03:00.708Z,12.30
2022-10-29T07:05:29.032Z,12.60
2022-10-29T07:07:58.689Z,12.80
2022-10-29T07:10:28.990Z,13.00
2022-10-29T07:12:57.551Z,13.20
2022-10-29T07:15:29.556Z,13.40
2022-10-29T07:18:00.364Z,13.60
2022-10-29T07:20:30.404Z,13.80
2022-10-29T07:22:59.306Z,13.90
2022-10-29T07:25:27.981Z,14.20
2022-10-29T07:27:56.745Z,14.70
2022-10-29T07:30:26.446Z,15.30
2022-10-29T07:32:54.509Z,15.80
2022-10-29T07:35:22.823Z,16.20
2022-10-29T07:37:50.932Z,16.60
2022-10-29T07:40:19.035Z,17.00
2022-10-29T07:42:47.184Z,17.40
2022-10-29T07:45:15.423Z,17.80
2022-10-29T07:47:45.010Z,18.20
2022-10-29T07:50:13.726Z,18.70
2022-10-29T07:52:42.212Z,19.20
2022-10-29T07:55:10.950Z,19.60
2022-10-29T07:57:39.093Z,20.20
2022-10-29T08:00:09.086Z,20.60
2022-10-29T08:02:42.197Z,21.10
2022-10-29T08:05:12.257Z,21.60
2022-10-29T08:07:40.457Z,21.50
2022-10-29T08:10:09.597Z,21.10
2022-10-29T08:12:37.751Z,20.90
2022-10-29T08:15:07.805Z,20.70
2022-10-29T08:17:35.920Z,20.70
2022-10-29T08:20:04.176Z,20.90
2022-10-29T08:22:33.651Z,20.80
2022-10-29T08:25:01.779Z,20.60
2022-10-29T08:27:29.846Z,20.30
2022-10-29T08:29:57.950Z,20.20
2022-10-29T08:32:26.099Z,19.90
2022-10-29T08:34:56.128Z,19.70
2022-10-29T08:37:24.310Z,19.60
2022-10-29T08:39:54.111Z,19.50
2022-10-29T08:42:40.654Z,19.50
2022-10-29T08:45:25.857Z,19.60
2022-10-29T08:48:20.455Z,19.80
2022-10-29T08:50:53.471Z,20.00
2022-10-29T08:53:28.670Z,20.20
2022-10-29T08:56:01.237Z,20.50
2022-10-29T08:58:37.237Z,20.70
2022-10-29T09:01:12.509Z,20.70
2022-10-29T09:03:40.816Z,20.80
2022-10-29T09:06:12.830Z,21.10
2022-10-29T09:09:04.913Z,21.10
2022-10-29T09:11:57.800Z,21.20
2022-10-29T09:14:41.853Z,21.30
2022-10-29T09:17:23.676Z,21.20
2022-10-29T09:20:19.301Z,21.30
2022-10-29T09:22:57.406Z,21.40
2022-10-29T09:25:32.071Z,21.40
2022-10-29T09:28:18.083Z,21.40
2022-10-29T09:30:55.746Z,21.30
2022-10-29T09:33:26.129Z,21.40
2022-10-29T09:35:57.349Z,21.60
2022-10-29T09:38:28.881Z,22.60
2022-10-29T09:41:00.416Z,23.80
2022-10-29T09:43:39.573Z,24.60
2022-10-29T09:46:18.971Z,25.40
2022-10-29T09:48:55.538Z,26.20
2022-10-29T09:51:34.812Z,27.00
2022-10-29T09:54:03.501Z,27.90
2022-10-29T09:56:31.882Z,28.50
2022-10-29T09:59:12.502Z,29.10
2022-10-29T10:01:41.497Z,29.60
2022-10-29T10:04:20.469Z,30.10
2022-10-29T10:07:08.237Z,30.70
2022-10-29T10:09:54.714Z,31.20
2022-10-29T10:12:26.308Z,31.30
2022-10-29T10:15:15.708Z,31.80
2022-10-29T10:18:02.852Z,32.40
2022-10-29T10:20:42.070Z,33.00
2022-10-29T10:23:27.179Z,33.40
2022-10-29T10:26:01.979Z,34.00
2022-10-29T10:28:35.328Z,34.20
2022-10-29T10:31:16.549Z,34.30
2022-10-29T10:33:54.286Z,34.60
2022-10-29T10:36:25.870Z,34.90
2022-10-29T10:38:57.470Z,35.30
2022-10-29T10:41:29.403Z,35.20
2022-10-29T10:44:01.319Z,35.20
2022-10-29T10:46:33.810Z,35.40
2022-10-29T10:49:07.185Z,35.50
2022-10-29T10:51:37.600Z,35.50
2022-10-29T10:54:26.666Z,35.40
2022-10-29T10:57:01.217Z,35.80
2022-10-29T10:59:44.798Z,36.20
2022-10-29T11:02:26.955Z,36.50
2022-10-29T11:05:03.688Z,36.90
2022-10-29T11:07:41.531Z,36.70
2022-10-29T11:10:14.792Z,36.80
2022-10-29T11:12:48.458Z,37.00
2022-10-29T11:15:25.934Z,37.10
2022-10-29T11:17:59.243Z,37.40
2022-10-29T11:20:31.993Z,37.40
2022-10-29T11:23:21.243Z,37.30
2022-10-29T11:25:55.741Z,37.30
2022-10-29T11:28:31.585Z,37.10
2022-10-29T11:31:11.790Z,37.10
2022-10-29T11:33:52.069Z,37.20
2022-10-29T11:36:23.407Z,37.40
2022-10-29T11:38:56.495Z,37.40
2022-10-29T11:41:31.960Z,37.30
2022-10-29T11:44:00.196Z,37.30
2022-10-29T11:46:40.655Z,37.20
2022-10-29T11:49:29.367Z,37.20
2022-10-29T11:52:09.554Z,37.40
2022-10-29T11:54:55.010Z,37.50
2022-10-29T11:57:32.590Z,37.30
2022-10-29T12:00:14.665Z,37.00
2022-10-29T12:03:29.768Z,37.10
2022-10-29T12:06:10.171Z,37.00
2022-10-29T12:08:58.369Z,37.10
2022-10-29T12:11:37.934Z,37.10
2022-10-29T12:14:23.762Z,37.00
2022-10-29T12:17:00.417Z,36.90
2022-10-29T12:19:42.336Z,37.10
2022-10-29T12:22:24.671Z,37.20
2022-10-29T12:25:09.280Z,36.90
2022-10-29T12:27:46.700Z,36.70
2022-10-29T12:30:18.627Z,36.30
2022-10-29T12:32:56.799Z,36.10
2022-10-29T12:35:31.050Z,35.60
2022-10-29T12:38:25.749Z,35.20
2022-10-29T12:41:04.884Z,35.20
2022-10-29T12:43:36.275Z,35.00
2022-10-29T12:46:21.298Z,35.20
2022-10-29T12:49:02.773Z,35.50
2022-10-29T12:51:42.396Z,35.60
2022-10-29T12:54:39.224Z,35.90
2022-10-29T12:57:29.318Z,36.10
2022-10-29T12:59:58.562Z,35.90
2022-10-29T13:02:45.596Z,35.40
2022-10-29T13:05:20.733Z,35.00
2022-10-29T13:08:12.421Z,34.70
2022-10-29T13:10:54.841Z,34.40
2022-10-29T13:13:55.444Z,34.20
2022-10-29T13:16:30.442Z,34.00
2022-10-29T13:19:20.569Z,33.90
2022-10-29T13:22:04.386Z,33.90
2022-10-29T13:24:33.370Z,33.60
2022-10-29T13:27:35.163Z,33.30
2022-10-29T13:30:22.994Z,33.00
2022-10-29T13:32:51.025Z,32.80
2022-10-29T13:35:42.127Z,32.60
2022-10-29T13:38:19.383Z,32.50
2022-10-29T13:41:12.813Z,32.50
2022-10-29T13:43:45.010Z,32.10
2022-10-29T13:46:45.552Z,32.00
2022-10-29T13:49:22.155Z,31.80
2022-10-29T13:51:55.526Z,31.50
2022-10-29T13:54:39.746Z,31.30
2022-10-29T13:57:19.152Z,31.10
2022-10-29T13:59:53.038Z,30.90
2022-10-29T14:02:45.183Z,30.70
2022-10-29T14:05:20.283Z,30.40
2022-10-29T14:07:56.988Z,30.00
2022-10-29T14:13:08.772Z,29.50
2022-10-29T14:15:39.056Z,29.20
2022-10-29T14:18:22.266Z,29.00
2022-10-29T14:20:55.971Z,28.80
2022-10-29T14:23:24.403Z,28.60
2022-10-29T14:25:53.790Z,28.20
2022-10-29T14:28:26.849Z,28.00
2022-10-29T14:31:05.068Z,28.00
2022-10-29T14:33:35.790Z,27.90
2022-10-29T14:36:14.997Z,27.80
2022-10-29T14:38:46.770Z,27.70
2022-10-29T14:41:17.105Z,27.50
2022-10-29T14:43:47.344Z,27.30
2022-10-29T14:46:27.165Z,27.00
2022-10-29T14:49:03.140Z,26.80
2022-10-29T14:51:39.452Z,26.50
2022-10-29T14:54:10.695Z,26.30
2022-10-29T14:56:41.832Z,26.10
2022-10-29T14:59:19.015Z,25.90
2022-10-29T15:02:05.750Z,25.70
2022-10-29T15:04:51.043Z,25.40
2022-10-29T15:07:34.195Z,25.30
2022-10-29T15:10:24.497Z,25.10
2022-10-29T15:12:53.869Z,25.00
2022-10-29T15:15:30.914Z,24.80
2022-10-29T15:18:04.369Z,24.60
2022-10-29T15:20:37.334Z,24.40
2022-10-29T15:23:06.023Z,24.30
2022-10-29T15:25:37.629Z,24.10
2022-10-29T15:28:11.237Z,23.90
2022-10-29T15:30:41.157Z,23.70
2022-10-29T15:33:18.387Z,23.40
2022-10-29T15:35:53.466Z,23.20
2022-10-29T15:39:20.950Z,23.00
2022-10-29T15:41:51.293Z,22.80
2022-10-29T15:44:40.697Z,22.50
2022-10-29T15:47:23.457Z,22.30
2022-10-29T15:49:52.994Z,22.20
2022-10-29T15:52:23.097Z,22.00
2022-10-29T15:54:51.388Z,21.90
2022-10-29T15:57:19.584Z,21.80
2022-10-29T15:59:47.744Z,21.60
2022-10-29T16:02:18.335Z,21.40
2022-10-29T16:04:46.645Z,21.30
2022-10-29T16:07:17.214Z,21.20
2022-10-29T16:09:49.470Z,21.10
2022-10-29T16:12:17.588Z,20.90
2022-10-29T16:14:45.873Z,20.70
2022-10-29T16:17:16.220Z,20.60
2022-10-29T16:19:44.396Z,20.50
2022-10-29T16:22:18.423Z,20.40
2022-10-29T16:24:46.631Z,20.20
2022-10-29T16:27:18.563Z,20.20
2022-10-29T16:29:49.483Z,20.10
2022-10-29T16:32:20.045Z,20.00
2022-10-29T16:34:48.378Z,19.90
2022-10-29T16:37:20.253Z,19.70
2022-10-29T16:39:48.388Z,19.60
2022-10-29T16:42:30.068Z,19.50
2022-10-29T16:44:58.482Z,19.40
2022-10-29T16:47:27.425Z,19.30
2022-10-29T16:49:55.824Z,19.20
2022-10-29T16:52:29.432Z,19.10
2022-10-29T16:54:58.262Z,19.00
2022-10-29T16:57:26.431Z,18.90
2022-10-29T16:59:54.528Z,18.80
2022-10-29T17:02:22.619Z,18.70
2022-10-29T17:04:50.718Z,18.60
2022-10-29T17:07:18.920Z,18.60
2022-10-29T17:09:48.335Z,18.50
2022-10-29T17:12:16.499Z,18.30
2022-10-29T17:14:44.586Z,18.30
2022-10-29T17:17:12.659Z,18.20
2022-10-29T17:19:40.737Z,18.10
2022-10-29T17:22:10.585Z,18.00
2022-10-29T17:24:38.830Z,17.90
2022-10-29T17:27:08.267Z,17.80
2022-10-29T17:29:36.668Z,17.80
2022-10-29T17:32:06.058Z,17.80
2022-10-29T17:34:34.343Z,17.70
2022-10-29T17:37:02.460Z,17.70
2022-10-29T17:39:30.743Z,17.70
2022-10-29T17:41:58.949Z,17.70
2022-10-29T17:44:28.430Z,17.60
2022-10-29T17:46:56.663Z,17.60
2022-10-29T17:49:25.726Z,17.60
2022-10-29T17:51:54.102Z,17.50
2022-10-29T17:54:22.769Z,17.50
2022-10-29T17:56:52.104Z,17.50
2022-10-29T17:59:20.227Z,17.40
2022-10-29T18:01:49.794Z,17.40
2022-10-29T18:04:18.077Z,17.30
2022-10-29T18:06:46.150Z,17.30
2022-10-29T18:09:17.166Z,17.30
2022-10-29T18:11:50.130Z,17.20
2022-10-29T18:14:18.261Z,17.20
2022-10-29T18:16:48.789Z,17.20
2022-10-29T18:19:17.254Z,17.20
2022-10-29T18:21:45.647Z,17.10
2022-10-29T18:24:13.731Z,17.10
2022-10-29T18:26:42.042Z,17.00
2022-10-29T18:29:13.178Z,17.00
2022-10-29T18:31:44.813Z,16.90
2022-10-29T18:34:16.880Z,16.90
2022-10-29T18:36:47.398Z,16.80
2022-10-29T18:39:15.640Z,16.80
2022-10-29T18:41:43.735Z,16.70
2022-10-29T18:44:11.893Z,16.60
2022-10-29T18:46:39.960Z,16.60
2022-10-29T18:49:08.058Z,16.50
2022-10-29T18:51:37.476Z,16.50
2022-10-29T18:54:06.436Z,16.40
2022-10-29T18:56:34.660Z,16.40
2022-10-29T18:59:02.808Z,16.40
2022-10-29T19:01:33.344Z,16.30
2022-10-29T19:04:03.992Z,16.20
2022-10-29T19:06:34.708Z,16.20
2022-10-29T19:09:07.774Z,16.10
2022-10-29T19:11:36.487Z,16.10
2022-10-29T19:14:07.772Z,16.00
2022-10-29T19:16:36.023Z,16.00
2022-10-29T19:19:07.223Z,15.90
2022-10-29T19:21:37.085Z,15.90
2022-10-29T19:24:08.657Z,15.90
2022-10-29T19:26:37.459Z,15.80
2022-10-29T19:29:07.686Z,15.80
2022-10-29T19:31:37.628Z,15.70
2022-10-29T19:34:08.735Z,15.70
2022-10-29T19:36:40.218Z,15.60
2022-10-29T19:39:10.018Z,15.50
2022-10-29T19:41:38.105Z,15.50
2022-10-29T19:44:06.734Z,15.40
2022-10-29T19:46:34.866Z,15.40
2022-10-29T19:49:03.487Z,15.30
2022-10-29T19:51:31.604Z,15.30
2022-10-29T19:54:01.904Z,15.20
2022-10-29T19:56:31.488Z,15.20
2022-10-29T19:58:59.686Z,15.20
2022-10-29T20:01:27.866Z,15.10
2022-10-29T20:03:56.062Z,15.10
2022-10-29T20:06:24.296Z,15.10
2022-10-29T20:08:52.363Z,15.00
2022-10-29T20:11:20.476Z,15.00
2022-10-29T20:13:49.978Z,15.00
2022-10-29T20:16:20.192Z,14.90
2022-10-29T20:18:49.498Z,14.90
2022-10-29T20:21:18.233Z,14.90
2022-10-29T20:23:46.773Z,14.80
2022-10-29T20:26:14.956Z,14.80
2022-10-29T20:28:43.336Z,14.70
2022-10-29T20:31:23.400Z,14.70
2022-10-29T20:33:52.370Z,14.70
2022-10-29T20:36:20.924Z,14.60
2022-10-29T20:38:52.988Z,14.60
2022-10-29T20:41:22.277Z,14.50
2022-10-29T20:43:53.972Z,14.50
2022-10-29T20:46:25.039Z,14.50
2022-10-29T20:48:53.255Z,14.50
2022-10-29T20:51:22.771Z,14.50
2022-10-29T20:53:51.417Z,14.40
2022-10-29T20:56:20.057Z,14.40
2022-10-29T20:58:48.214Z,14.40
2022-10-29T21:01:19.286Z,14.40
2022-10-29T21:03:50.841Z,14.30
2022-10-29T21:06:19.275Z,14.30
2022-10-29T21:08:48.051Z,14.30
2022-10-29T21:11:17.772Z,14.20
2022-10-29T21:13:46.541Z,14.20
2022-10-29T21:16:17.762Z,14.20
2022-10-29T21:18:49.636Z,14.20
2022-10-29T21:21:18.466Z,14.10
2022-10-29T21:23:46.856Z,14.10
2022-10-29T21:26:17.188Z,14.10
2022-10-29T21:28:45.693Z,14.10
2022-10-29T21:31:13.830Z,14.10
2022-10-29T21:33:41.983Z,14.00
2022-10-29T21:36:14.206Z,14.00
2022-10-29T21:38:42.575Z,14.00
2022-10-29T21:41:11.046Z,13.90
2022-10-29T21:43:39.378Z,13.90
2022-10-29T21:46:08.002Z,13.80
2022-10-29T21:48:36.585Z,13.80
2022-10-29T21:51:08.030Z,13.80
2022-10-29T21:53:37.646Z,13.80
2022-10-29T21:56:08.833Z,13.80
2022-10-29T21:58:36.937Z,13.70
2022-10-29T22:01:07.954Z,13.70
2022-10-29T22:03:40.377Z,13.70
2022-10-29T22:06:11.594Z,13.60
2022-10-29T22:08:41.896Z,13.60
2022-10-29T22:11:10.710Z,13.50
2022-10-29T22:13:39.042Z,13.50
2022-10-29T22:16:08.589Z,13.50
2022-10-29T22:18:37.333Z,13.40
2022-10-29T22:21:09.296Z,13.40
2022-10-29T22:23:38.686Z,13.30
2022-10-29T22:26:08.285Z,13.30
2022-10-29T22:28:36.397Z,13.30
2022-10-29T22:31:06.032Z,13.30
2022-10-29T22:33:35.171Z,13.30
2022-10-29T22:36:09.131Z,13.30
2022-10-29T22:38:38.210Z,13.30
2022-10-29T22:41:10.302Z,13.20
2022-10-29T22:43:38.830Z,13.20
2022-10-29T22:46:08.847Z,13.20
2022-10-29T22:48:37.439Z,13.20
2022-10-29T22:51:08.269Z,13.20
2022-10-29T22:53:36.355Z,13.20
2022-10-29T22:56:05.434Z,13.10
2022-10-29T22:58:34.910Z,13.10
2022-10-29T23:01:05.381Z,13.10
2022-10-29T23:03:34.311Z,13.10
2022-10-29T23:06:04.875Z,13.10
2022-10-29T23:08:33.775Z,13.00
2022-10-29T23:11:06.204Z,13.00
2022-10-29T23:13:36.231Z,13.00
2022-10-29T23:16:04.783Z,13.00
2022-10-29T23:18:32.918Z,12.90
2022-10-29T23:21:01.994Z,12.90
2022-10-29T23:23:30.971Z,12.90
2022-10-29T23:26:03.340Z,12.80
2022-10-29T23:28:33.476Z,12.80
2022-10-29T23:31:07.753Z,12.80
2022-10-29T23:33:35.832Z,12.70
2022-10-29T23:36:04.811Z,12.70
2022-10-29T23:38:33.850Z,12.70
2022-10-29T23:41:03.104Z,12.70
2022-10-29T23:43:31.988Z,12.70
2022-10-29T23:46:00.214Z,12.70
2022-10-29T23:48:29.785Z,12.60
2022-10-29T23:50:58.013Z,12.60
2022-10-29T23:53:26.539Z,12.60
2022-10-29T23:55:54.634Z,12.50
2022-10-29T23:58:22.732Z,12.50
